Time;durP1;ratioP1;P1;durP2;ratioP2;P2;SDS_P1;SDS_P2;PMS_P1;PMS_P2;Temp;Humidity;BMP_temperature;BMP_pressure;BME280_temperature;BME280_humidity;BME280_pressure;Samples;Min_cycle;Max_cycle;Signal;HPM_P1;HPM_P2
2023/12/17 00:01:22;;;;;;;6.00;3.65;;;;;;;10.36;100.00;103709.78;10335916;28;20054;-73
2023/12/17 00:06:22;;;;;;;5.55;2.70;;;;;;;10.32;100.00;103719.16;10333670;28;20041;-73
2023/12/17 00:11:23;;;;;;;4.47;2.70;;;;;;;10.30;100.00;103702.16;10334627;28;20061;-73
2023/12/17 00:16:25;;;;;;;6.28;3.55;;;;;;;10.29;100.00;103692.31;10333042;28;20463;-73
2023/12/17 00:21:26;;;;;;;3.67;3.35;;;;;;;10.27;100.00;103678.03;10333123;28;20038;-73
2023/12/17 00:26:26;;;;;;;3.50;3.20;;;;;;;10.28;100.00;103668.09;10332973;28;20030;-73
2023/12/17 00:31:26;;;;;;;9.32;3.60;;;;;;;10.29;100.00;103684.19;10332839;28;20046;-73
2023/12/17 00:36:27;;;;;;;14.20;3.15;;;;;;;10.31;100.00;103692.22;10347840;28;20030;-73
2023/12/17 00:41:27;;;;;;;12.60;4.03;;;;;;;10.30;100.00;103688.59;10331821;28;20522;-73
2023/12/17 00:46:28;;;;;;;4.70;2.83;;;;;;;10.26;100.00;103681.75;10331796;28;20105;-73
2023/12/17 00:51:28;;;;;;;5.57;3.15;;;;;;;10.22;100.00;103667.56;10332462;28;20426;-73
2023/12/17 00:56:29;;;;;;;9.13;2.97;;;;;;;10.22;100.00;103672.13;10332513;28;20125;-72
2023/12/17 01:01:30;;;;;;;4.03;2.97;;;;;;;10.20;100.00;103664.09;10331758;28;20074;-73
2023/12/17 01:06:30;;;;;;;8.45;3.08;;;;;;;10.19;100.00;103654.28;10331728;28;20085;-73
2023/12/17 01:11:31;;;;;;;6.30;2.65;;;;;;;10.19;100.00;103662.41;10332534;28;20070;-73
2023/12/17 01:16:31;;;;;;;4.13;2.58;;;;;;;10.21;100.00;103646.91;10331340;28;20038;-73
2023/12/17 01:21:32;;;;;;;5.32;3.13;;;;;;;10.23;100.00;103649.47;10331944;28;20138;-73
2023/12/17 01:26:32;;;;;;;5.00;3.28;;;;;;;10.20;100.00;103657.84;10332547;28;20141;-74
2023/12/17 01:31:32;;;;;;;6.38;2.85;;;;;;;10.19;100.00;103654.28;10330772;28;20042;-74
2023/12/17 01:36:33;;;;;;;13.35;3.28;;;;;;;10.28;100.00;103655.41;10330458;28;20118;-73
2023/12/17 01:41:33;;;;;;;5.78;3.22;;;;;;;10.24;100.00;103640.34;10329008;28;20512;-73
2023/12/17 01:46:34;;;;;;;15.48;3.97;;;;;;;10.25;100.00;103642.94;10330926;28;20209;-73
2023/12/17 01:51:34;;;;;;;4.93;2.42;;;;;;;10.30;100.00;103639.00;10331387;28;20431;-73
2023/12/17 01:56:34;;;;;;;8.02;3.75;;;;;;;10.30;100.00;103639.84;10333045;28;20030;-74
2023/12/17 02:01:35;;;;;;;5.07;3.25;;;;;;;10.31;100.00;103636.19;10338685;28;20054;-73
2023/12/17 02:06:35;;;;;;;7.20;2.90;;;;;;;10.35;100.00;103644.91;10337351;28;20041;-73
2023/12/17 02:11:36;;;;;;;9.73;3.05;;;;;;;10.37;100.00;103645.63;10338477;28;20117;-73
2023/12/17 02:16:36;;;;;;;3.55;2.30;;;;;;;10.39;100.00;103659.91;10337023;28;20030;-73
2023/12/17 02:21:36;;;;;;;3.35;2.38;;;;;;;10.40;100.00;103658.91;10338358;28;20045;-73
2023/12/17 02:26:40;;;;;;;8.25;2.40;;;;;;;10.42;100.00;103665.06;10338188;28;20117;-74
2023/12/17 02:31:41;;;;;;;2.35;2.15;;;;;;;10.36;100.00;103671.84;10337539;28;20126;-73
2023/12/17 02:36:41;;;;;;;6.93;3.28;;;;;;;10.36;100.00;103671.84;10336059;28;20561;-73
2023/12/17 02:41:41;;;;;;;4.43;2.03;;;;;;;10.37;100.00;103675.41;10337383;28;20038;-73
2023/12/17 02:46:42;;;;;;;7.72;3.50;;;;;;;10.36;100.00;103671.84;10335618;28;20034;-73
2023/12/17 02:51:42;;;;;;;7.18;3.00;;;;;;;10.36;100.00;103666.44;10336784;28;20096;-73
2023/12/17 02:56:43;;;;;;;10.55;4.55;;;;;;;10.31;100.00;103657.84;10335335;28;20038;-73
2023/12/17 03:01:43;;;;;;;6.03;2.97;;;;;;;10.31;100.00;103659.72;10337040;28;20042;-73
2023/12/17 03:06:44;;;;;;;11.02;3.80;;;;;;;10.27;100.00;103653.66;10336766;28;20066;-73
2023/12/17 03:11:45;;;;;;;5.45;3.45;;;;;;;10.22;100.00;103645.91;10336586;28;20034;-73
2023/12/17 03:16:45;;;;;;;7.90;2.92;;;;;;;10.22;100.00;103639.63;10335430;28;20030;-73
2023/12/17 03:21:46;;;;;;;5.68;3.13;;;;;;;10.19;100.00;103642.59;10335728;28;20053;-73
2023/12/17 03:26:46;;;;;;;12.18;4.30;;;;;;;10.17;100.00;103637.28;10335478;28;20497;-73
2023/12/17 03:31:47;;;;;;;24.08;4.35;;;;;;;10.10;100.00;103624.41;10335781;28;20038;-73
2023/12/17 03:36:47;;;;;;;9.27;4.20;;;;;;;10.10;100.00;103630.66;10334512;28;20034;-73
2023/12/17 03:41:48;;;;;;;14.15;4.43;;;;;;;10.07;100.00;103627.34;10349149;28;20042;-73
2023/12/17 03:46:48;;;;;;;10.35;4.47;;;;;;;10.01;100.00;103618.75;10350426;28;20042;-73
2023/12/17 03:51:49;;;;;;;6.35;3.78;;;;;;;9.98;100.00;103615.44;10350335;28;20070;-73
2023/12/17 03:56:49;;;;;;;4.70;3.38;;;;;;;10.00;100.00;103619.75;10334095;28;20073;-74
2023/12/17 04:01:50;;;;;;;13.88;6.10;;;;;;;9.96;100.00;103612.88;10333608;28;20272;-73
2023/12/17 04:06:50;;;;;;;25.55;6.57;;;;;;;9.85;100.00;103604.75;10332827;28;20475;-73
2023/12/17 04:11:51;;;;;;;10.18;5.50;;;;;;;9.83;100.00;103595.94;10333613;28;20081;-73
2023/12/17 04:16:51;;;;;;;21.05;6.65;;;;;;;9.76;100.00;103590.16;10333281;28;20117;-73
2023/12/17 04:21:52;;;;;;;20.77;6.32;;;;;;;9.71;100.00;103588.81;10332146;28;20046;-73
2023/12/17 04:26:52;;;;;;;12.90;4.30;;;;;;;9.75;100.00;103591.13;10332669;28;20201;-73
2023/12/17 04:31:52;;;;;;;11.95;5.25;;;;;;;9.76;100.00;103591.97;10333219;28;20039;-73
2023/12/17 04:36:54;;;;;;;20.90;5.68;;;;;;;9.67;100.00;103582.81;10331762;28;20049;-73
2023/12/17 04:41:54;;;;;;;15.05;7.60;;;;;;;9.65;100.00;103586.63;10331723;28;20386;-73
2023/12/17 04:46:57;;;;;;;11.35;7.65;;;;;;;9.65;100.00;103581.19;10332437;28;20129;-73
2023/12/17 04:51:57;;;;;;;21.95;7.68;;;;;;;9.61;100.00;103583.31;10331615;28;20039;-73
2023/12/17 04:56:58;;;;;;;15.43;7.25;;;;;;;9.61;100.00;103577.88;10331493;28;20376;-73
2023/12/17 05:01:58;;;;;;;23.50;7.78;;;;;;;9.61;100.00;103574.31;10332383;28;20030;-73
2023/12/17 05:06:59;;;;;;;19.30;9.23;;;;;;;9.63;100.00;103559.66;10333013;28;20041;-73
2023/12/17 05:12:00;;;;;;;21.80;7.25;;;;;;;9.60;100.00;103556.34;10332448;28;20035;-73
2023/12/17 05:17:00;;;;;;;52.17;10.90;;;;;;;9.59;100.00;103571.72;10331290;28;20042;-73
2023/12/17 05:22:00;;;;;;;31.48;6.90;;;;;;;9.61;100.00;103555.38;10331231;28;20128;-73
2023/12/17 05:27:01;;;;;;;10.48;6.90;;;;;;;9.57;100.00;103552.06;10331644;28;20092;-73
2023/12/17 05:32:01;;;;;;;23.35;8.30;;;;;;;9.61;100.00;103561.66;10335691;28;20050;-73
2023/12/17 05:37:02;;;;;;;30.98;6.60;;;;;;;9.62;100.00;103549.84;10338429;28;20034;-73
2023/12/17 05:42:02;;;;;;;24.38;8.30;;;;;;;9.61;100.00;103552.69;10340559;28;20069;-73
2023/12/17 05:47:03;;;;;;;24.50;8.38;;;;;;;9.57;100.00;103567.44;10339848;28;20045;-73
2023/12/17 05:52:03;;;;;;;26.42;9.90;;;;;;;9.59;100.00;103569.03;10354101;28;20046;-73
2023/12/17 05:57:04;;;;;;;26.00;8.73;;;;;;;9.55;100.00;103557.59;10339398;28;20046;-73
2023/12/17 06:02:05;;;;;;;17.92;9.63;;;;;;;9.59;100.00;103569.03;10339681;28;20133;-74
2023/12/17 06:07:06;;;;;;;18.15;8.80;;;;;;;9.55;100.00;103568.41;10339363;28;20035;-73
2023/12/17 06:12:06;;;;;;;14.70;6.95;;;;;;;9.51;100.00;103580.50;10340991;28;20441;-73
2023/12/17 06:17:07;;;;;;;14.15;7.97;;;;;;;9.50;100.00;103591.41;10353653;28;20097;-73
2023/12/17 06:22:11;;;;;;;12.27;7.15;;;;;;;9.42;100.00;103574.97;10338311;28;20478;-73
2023/12/17 06:27:15;;;;;;;18.00;11.13;;;;;;;9.45;100.00;103575.56;10337126;28;20043;-73
2023/12/17 06:32:16;;;;;;;23.98;12.70;;;;;;;9.45;100.00;103563.91;10336893;28;20606;-73
2023/12/17 06:37:16;;;;;;;33.55;15.02;;;;;;;9.49;100.00;103551.84;10338744;28;20142;-73
2023/12/17 06:42:16;;;;;;;22.00;16.92;;;;;;;9.37;100.00;103560.94;10336905;28;20126;-73
2023/12/17 06:47:18;;;;;;;28.73;16.60;;;;;;;9.37;100.00;103560.94;10337841;28;20092;-74
2023/12/17 06:52:19;;;;;;;39.25;21.92;;;;;;;9.32;100.00;103577.56;10336776;28;20439;-73
2023/12/17 06:57:19;;;;;;;27.23;19.23;;;;;;;9.36;100.00;103579.03;10336537;28;20069;-74
2023/12/17 07:02:19;;;;;;;33.30;19.73;;;;;;;9.41;100.00;103573.22;10336120;28;20073;-73
2023/12/17 07:07:20;;;;;;;25.13;15.73;;;;;;;9.32;100.00;103567.59;10336413;28;20045;-73
2023/12/17 07:12:20;;;;;;;37.33;18.20;;;;;;;9.32;100.00;103567.59;10334919;28;20467;-73
2023/12/17 07:17:20;;;;;;;20.15;14.32;;;;;;;9.29;100.00;103572.41;10336104;28;20038;-73
2023/12/17 07:22:22;;;;;;;19.15;13.63;;;;;;;9.21;100.00;103573.00;10336049;28;20058;-73
2023/12/17 07:27:22;;;;;;;24.38;12.23;;;;;;;9.28;100.00;103586.88;10336363;28;20027;-73
2023/12/17 07:32:23;;;;;;;21.20;11.43;;;;;;;9.19;100.00;103582.19;10335384;28;20367;-73
2023/12/17 07:37:23;;;;;;;20.33;11.52;;;;;;;9.17;100.00;103570.66;10334951;28;20114;-73
2023/12/17 07:42:23;;;;;;;15.48;9.68;;;;;;;9.11;100.00;103571.16;10335069;28;20443;-73
2023/12/17 07:47:24;;;;;;;21.50;10.32;;;;;;;9.18;100.00;103577.78;10334603;28;20038;-72
2023/12/17 07:52:24;;;;;;;20.02;9.77;;;;;;;9.05;100.00;103586.00;10333715;28;20034;-72
2023/12/17 07:57:25;;;;;;;18.85;9.38;;;;;;;9.03;100.00;103593.38;10332709;28;20443;-73
2023/12/17 08:02:26;;;;;;;20.63;11.93;;;;;;;9.04;100.00;103595.13;10333387;28;20050;-72
2023/12/17 08:07:26;;;;;;;20.83;7.72;;;;;;;8.97;100.00;103591.19;10334222;28;20038;-72
2023/12/17 08:12:27;;;;;;;27.33;10.88;;;;;;;8.95;100.00;103590.44;10333955;28;20045;-73
2023/12/17 08:17:28;;;;;;;11.25;8.57;;;;;;;9.03;100.00;103601.47;10333548;28;20110;-73
2023/12/17 08:22:28;;;;;;;21.25;10.88;;;;;;;9.04;100.00;103605.94;10332584;28;20045;-72
2023/12/17 08:27:29;;;;;;;11.18;9.55;;;;;;;8.91;100.00;103602.47;10332624;28;20458;-72
2023/12/17 08:32:33;;;;;;;12.68;10.35;;;;;;;8.93;100.00;103604.03;10332938;28;20125;-73
2023/12/17 08:37:33;;;;;;;17.83;11.32;;;;;;;8.94;100.00;103604.94;10347330;28;20038;-73
2023/12/17 08:42:34;;;;;;;26.08;14.18;;;;;;;8.94;100.00;103600.38;10331488;28;20113;-73
2023/12/17 08:47:34;;;;;;;19.35;12.48;;;;;;;8.91;100.00;103595.22;10332178;28;20034;-73
2023/12/17 08:52:36;;;;;;;22.02;13.20;;;;;;;8.90;100.00;103603.44;10332533;28;20070;-73
2023/12/17 08:57:37;;;;;;;14.07;10.82;;;;;;;8.88;100.00;103600.88;10331855;28;20058;-73
2023/12/17 09:02:37;;;;;;;22.75;12.20;;;;;;;8.82;100.00;103587.84;10332582;28;20046;-73
2023/12/17 09:07:38;;;;;;;30.05;14.27;;;;;;;8.79;100.00;103612.38;10331427;28;20478;-73
2023/12/17 09:12:38;;;;;;;15.23;12.13;;;;;;;8.90;100.00;103620.50;10332016;28;20046;-73
2023/12/17 09:17:42;;;;;;;20.88;15.50;;;;;;;8.89;100.00;103613.38;10331382;28;20105;-73
2023/12/17 09:22:42;;;;;;;28.42;16.20;;;;;;;8.85;100.00;103612.78;10331967;28;20041;-73
2023/12/17 09:27:42;;;;;;;25.67;18.08;;;;;;;8.92;100.00;103623.09;10332190;28;20042;-72
2023/12/17 09:32:44;;;;;;;31.10;16.10;;;;;;;8.74;100.00;103619.97;10331939;28;20422;-72
2023/12/17 09:37:44;;;;;;;22.83;14.38;;;;;;;8.84;100.00;103629.97;10330982;28;20474;-72
2023/12/17 09:42:44;;;;;;;16.83;11.82;;;;;;;8.78;100.00;103610.69;10331514;28;20467;-72
2023/12/17 09:47:45;;;;;;;20.77;14.70;;;;;;;8.88;100.00;103638.69;10329729;28;20030;-72
2023/12/17 09:52:48;;;;;;;14.45;11.90;;;;;;;8.85;100.00;103607.38;10329408;28;20060;-72
2023/12/17 09:57:49;;;;;;;18.08;13.52;;;;;;;8.92;100.00;103626.66;10330204;28;20058;-73
2023/12/17 10:02:49;;;;;;;32.45;20.45;;;;;;;8.77;100.00;103614.34;10332616;28;20439;-73
2023/12/17 10:07:50;;;;;;;25.05;18.85;;;;;;;8.79;100.00;103607.84;10329937;28;20446;-73
2023/12/17 10:12:51;;;;;;;22.35;16.65;;;;;;;8.73;100.00;103615.56;10330593;28;20122;-72
2023/12/17 10:17:51;;;;;;;17.58;11.13;;;;;;;8.86;100.00;103602.81;10333453;28;20026;-72
2023/12/17 10:22:59;;;;;;;29.85;15.70;;;;;;;8.91;100.00;103597.06;10339087;28;20455;-72
2023/12/17 10:27:59;;;;;;;31.55;13.88;;;;;;;9.00;100.00;103599.91;10336946;28;20125;-73
2023/12/17 10:33:01;;;;;;;20.98;14.48;;;;;;;8.90;100.00;103581.81;10353348;28;20031;-72
2023/12/17 10:38:02;;;;;;;33.45;14.35;;;;;;;8.74;100.00;103587.56;10336587;28;20062;-73
2023/12/17 10:43:06;;;;;;;29.75;15.13;;;;;;;8.91;100.00;103576.31;10336886;28;20065;-72
2023/12/17 10:48:06;;;;;;;24.20;14.20;;;;;;;8.91;100.00;103561.94;10339973;28;20023;-72
2023/12/17 10:53:06;;;;;;;19.92;13.95;;;;;;;9.10;100.00;103558.63;10322788;28;20359;-72
2023/12/17 10:58:12;;;;;;;22.42;15.23;;;;;;;8.98;100.00;103550.50;10352201;28;20062;-73
2023/12/17 11:03:14;;;;;;;33.87;15.23;;;;;;;9.00;100.00;103539.59;10337251;28;20037;-72
2023/12/17 11:08:14;;;;;;;32.97;14.18;;;;;;;9.20;100.00;103536.13;10335149;28;20026;-73
2023/12/17 11:13:14;;;;;;;20.95;13.50;;;;;;;9.28;100.00;103527.38;10335415;28;20026;-72
2023/12/17 11:18:15;;;;;;;20.20;15.57;;;;;;;9.22;100.00;103525.19;10320080;28;20053;-72
2023/12/17 11:23:17;;;;;;;20.85;14.07;;;;;;;9.03;100.00;103506.88;10335929;28;20116;-72
2023/12/17 11:28:26;;;;;;;24.73;14.05;;;;;;;9.15;100.00;103514.00;10335500;28;20046;-72
2023/12/17 11:33:27;;;;;;;23.77;11.68;;;;;;;9.02;100.00;103497.91;10334656;28;20356;-72
2023/12/17 11:38:27;;;;;;;14.27;11.88;;;;;;;8.97;100.00;103492.03;10333618;28;20062;-72
2023/12/17 11:43:28;;;;;;;13.80;10.95;;;;;;;8.71;100.00;103483.31;10333952;28;20097;-72
2023/12/17 11:48:28;;;;;;;18.15;10.73;;;;;;;8.68;100.00;103464.66;10335475;28;20042;-72
2023/12/17 11:53:30;;;;;;;26.45;11.35;;;;;;;8.81;100.00;103470.78;10336005;28;20384;-72
2023/12/17 11:58:30;;;;;;;10.65;9.55;;;;;;;8.95;100.00;103456.16;10333667;28;20406;-72
2023/12/17 12:03:31;;;;;;;22.33;11.30;;;;;;;9.88;100.00;103460.22;10333554;28;20093;-73
2023/12/17 12:08:35;;;;;;;19.52;9.13;;;;;;;10.40;100.00;103455.75;10335311;28;20038;-72
2023/12/17 12:13:36;;;;;;;21.73;9.05;;;;;;;10.81;100.00;103443.97;10317134;28;20049;-73
2023/12/17 12:18:37;;;;;;;17.17;7.18;;;;;;;11.03;100.00;103439.34;10332724;28;20035;-72
2023/12/17 12:23:37;;;;;;;18.60;7.30;;;;;;;11.07;100.00;103443.47;10332451;28;20467;-72
2023/12/17 12:28:38;;;;;;;13.13;6.68;;;;;;;11.05;100.00;103442.78;10332876;28;20129;-72
2023/12/17 12:33:38;;;;;;;9.43;6.13;;;;;;;11.17;100.00;103428.97;10333449;28;20109;-72
2023/12/17 12:38:39;;;;;;;18.35;6.97;;;;;;;11.24;100.00;103429.25;10333965;28;20117;-72
2023/12/17 12:43:40;;;;;;;16.73;8.43;;;;;;;11.41;100.00;103406.84;10333014;28;20031;-73
2023/12/17 12:48:40;;;;;;;10.35;6.30;;;;;;;11.25;100.00;103403.84;10333173;28;20500;-72
2023/12/17 12:53:41;;;;;;;9.65;6.03;;;;;;;10.98;100.00;103390.97;10332901;28;20177;-73
2023/12/17 12:58:42;;;;;;;15.27;4.18;;;;;;;10.73;100.00;103378.75;10331703;28;20435;-73
2023/12/17 13:03:42;;;;;;;12.70;4.60;;;;;;;10.38;100.00;103380.06;10332702;28;20485;-73
2023/12/17 13:08:43;;;;;;;5.63;4.32;;;;;;;10.28;100.00;103365.63;10332984;28;20030;-72
2023/12/17 13:13:43;;;;;;;10.98;5.32;;;;;;;10.10;100.00;103372.59;10334788;28;20049;-73
2023/12/17 13:18:43;;;;;;;20.02;5.90;;;;;;;9.95;100.00;103353.13;10336097;28;20042;-72
2023/12/17 13:23:44;;;;;;;6.63;3.63;;;;;;;9.87;100.00;103358.38;10335398;28;20030;-72
2023/12/17 13:28:44;;;;;;;9.48;4.25;;;;;;;9.80;100.00;103349.91;10332997;28;20058;-72
2023/12/17 13:33:45;;;;;;;9.57;5.25;;;;;;;9.72;100.00;103337.03;10331953;28;20026;-72
2023/12/17 13:38:45;;;;;;;10.27;4.80;;;;;;;9.73;100.00;103335.19;10331867;28;20454;-73
2023/12/17 13:43:47;;;;;;;7.85;5.10;;;;;;;9.62;100.00;103346.09;10331471;28;20070;-72
2023/12/17 13:48:47;;;;;;;10.15;5.88;;;;;;;9.49;100.00;103336.31;10330915;28;20026;-72
2023/12/17 13:53:48;;;;;;;5.45;3.85;;;;;;;9.47;100.00;103340.13;10337846;28;20037;-73
2023/12/17 13:58:49;;;;;;;7.82;4.65;;;;;;;9.54;100.00;103331.38;10338553;28;20342;-73
2023/12/17 14:03:49;;;;;;;19.70;5.28;;;;;;;9.39;100.00;103329.97;10337368;28;20137;-73
2023/12/17 14:08:51;;;;;;;9.95;4.72;;;;;;;9.25;100.00;103320.34;10340284;28;20046;-73
2023/12/17 14:13:51;;;;;;;14.98;4.65;;;;;;;9.22;100.00;103311.59;10338675;28;20042;-73
2023/12/17 14:18:52;;;;;;;12.52;5.90;;;;;;;9.10;100.00;103310.81;10337054;28;20038;-73
2023/12/17 14:23:54;;;;;;;7.82;5.18;;;;;;;9.07;100.00;103297.53;10337375;28;20065;-73
2023/12/17 14:28:54;;;;;;;9.77;4.35;;;;;;;9.10;100.00;103289.19;10338722;28;20134;-73
2023/12/17 14:33:56;;;;;;;18.70;5.55;;;;;;;9.01;100.00;103298.06;10339050;28;20084;-73
2023/12/17 14:38:56;;;;;;;9.38;4.55;;;;;;;8.97;100.00;103296.59;10336655;28;20445;-72
2023/12/17 14:43:56;;;;;;;9.35;4.68;;;;;;;8.92;100.00;103296.13;10337409;28;20106;-72
2023/12/17 14:48:57;;;;;;;6.50;4.53;;;;;;;8.78;100.00;103279.22;10335218;28;20108;-73
2023/12/17 14:53:57;;;;;;;8.13;5.68;;;;;;;8.73;100.00;103280.56;10336218;28;20041;-72
2023/12/17 14:58:59;;;;;;;5.65;3.58;;;;;;;8.49;100.00;103275.38;10335169;28;20085;-72
2023/12/17 15:03:59;;;;;;;15.15;5.80;;;;;;;8.38;100.00;103257.31;10350479;28;20378;-72
2023/12/17 15:09:03;;;;;;;7.10;5.20;;;;;;;8.30;100.00;103268.72;10335082;28;20041;-72
2023/12/17 15:14:03;;;;;;;4.63;3.42;;;;;;;8.16;100.00;103279.75;10336243;28;20117;-72
2023/12/17 15:19:04;;;;;;;19.25;6.05;;;;;;;8.07;100.00;103277.81;10335380;28;20438;-71
2023/12/17 15:24:04;;;;;;;26.42;8.30;;;;;;;7.99;100.00;103283.81;10335962;28;20435;-73
2023/12/17 15:29:05;;;;;;;5.43;4.93;;;;;;;7.89;100.00;103293.63;10334850;28;20069;-72
2023/12/17 15:34:06;;;;;;;9.25;4.97;;;;;;;7.73;100.00;103287.72;10334108;28;20069;-72
2023/12/17 15:39:06;;;;;;;16.38;6.45;;;;;;;7.71;100.00;103279.75;10337530;28;20034;-72
2023/12/17 15:44:07;;;;;;;21.88;8.40;;;;;;;7.57;100.00;103277.28;10321041;28;20026;-72
2023/12/17 15:49:07;;;;;;;15.85;6.85;;;;;;;7.51;100.00;103272.34;10337266;28;20375;-73
2023/12/17 15:54:08;;;;;;;24.85;9.02;;;;;;;7.46;100.00;103259.22;10334793;28;20462;-73
2023/12/17 15:59:10;;;;;;;13.32;5.72;;;;;;;7.37;100.00;103259.94;10334931;28;20042;-72
2023/12/17 16:04:11;;;;;;;11.60;7.47;;;;;;;7.34;100.00;103238.59;10334516;28;20042;-73
2023/12/17 16:09:11;;;;;;;15.98;7.72;;;;;;;7.29;100.00;103241.66;10334318;28;20042;-72
2023/12/17 16:14:11;;;;;;;8.80;6.50;;;;;;;7.20;100.00;103245.91;10333743;28;20030;-72
2023/12/17 16:19:12;;;;;;;14.90;6.40;;;;;;;7.26;100.00;103259.91;10332579;28;20030;-72
2023/12/17 16:24:12;;;;;;;17.13;9.00;;;;;;;7.17;100.00;103242.59;10332648;28;20073;-72
2023/12/17 16:29:13;;;;;;;15.32;5.85;;;;;;;7.15;100.00;103223.88;10316614;28;20038;-72
2023/12/17 16:34:13;;;;;;;11.05;7.25;;;;;;;7.24;100.00;103222.28;10332315;28;20126;-72
2023/12/17 16:39:15;;;;;;;19.05;7.47;;;;;;;7.10;100.00;103212.59;10332750;28;20061;-72
2023/12/17 16:44:16;;;;;;;15.88;7.45;;;;;;;7.14;100.00;103221.28;10332683;28;20034;-72
2023/12/17 16:49:16;;;;;;;13.70;8.15;;;;;;;7.09;100.00;103213.56;10333093;28;20069;-72
2023/12/17 16:54:16;;;;;;;18.42;6.43;;;;;;;7.05;100.00;103214.78;10330823;28;20030;-72
2023/12/17 16:59:17;;;;;;;15.80;6.70;;;;;;;7.03;100.00;103197.88;10333110;28;20108;-72
2023/12/17 17:04:17;;;;;;;13.43;6.53;;;;;;;7.05;100.00;103205.81;10332479;28;20066;-72
2023/12/17 17:09:18;;;;;;;16.92;7.43;;;;;;;7.04;100.00;103217.59;10331290;28;20069;-72
2023/12/17 17:14:19;;;;;;;16.67;8.32;;;;;;;6.98;100.00;103225.16;10315080;28;20367;-72
2023/12/17 17:19:19;;;;;;;17.55;8.75;;;;;;;6.90;100.00;103240.19;10332972;28;20125;-72
2023/12/17 17:24:20;;;;;;;14.18;7.82;;;;;;;6.91;100.00;103250.84;10332135;28;20058;-72
2023/12/17 17:29:20;;;;;;;13.70;7.50;;;;;;;6.84;100.00;103254.13;10340674;28;20034;-72
2023/12/17 17:34:21;;;;;;;22.90;8.00;;;;;;;6.73;100.00;103263.88;10339485;28;20042;-72
2023/12/17 17:39:22;;;;;;;17.88;9.10;;;;;;;6.71;100.00;103265.81;10355323;28;20168;-72
2023/12/17 17:44:22;;;;;;;13.68;6.82;;;;;;;6.67;100.00;103256.25;10340309;28;20386;-72
2023/12/17 17:49:22;;;;;;;17.27;8.05;;;;;;;6.65;100.00;103258.19;10340988;28;20477;-73
2023/12/17 17:54:23;;;;;;;14.82;8.25;;;;;;;6.58;100.00;103254.22;10339594;28;20470;-72
2023/12/17 17:59:23;;;;;;;19.70;10.18;;;;;;;6.54;100.00;103260.81;10338318;28;20055;-73
2023/12/17 18:04:24;;;;;;;16.33;9.38;;;;;;;6.47;100.00;103265.78;10340096;28;20455;-72
2023/12/17 18:09:25;;;;;;;17.45;11.23;;;;;;;6.37;100.00;103259.34;10341066;28;20047;-73
2023/12/17 18:14:25;;;;;;;24.30;11.43;;;;;;;6.39;100.00;103251.19;10339655;28;20466;-72
2023/12/17 18:19:26;;;;;;;15.88;8.27;;;;;;;6.31;100.00;103253.56;10339761;28;20057;-72
2023/12/17 18:24:27;;;;;;;12.75;8.30;;;;;;;6.26;100.00;103252.06;10338629;28;20035;-72
2023/12/17 18:29:28;;;;;;;17.50;9.27;;;;;;;6.29;100.00;103261.75;10336745;28;20035;-72
2023/12/17 18:34:28;;;;;;;16.35;10.70;;;;;;;6.27;100.00;103252.91;10337296;28;20378;-72
2023/12/17 18:39:30;;;;;;;19.98;9.55;;;;;;;6.18;100.00;103259.81;10337917;28;20046;-72
2023/12/17 18:44:31;;;;;;;14.90;9.70;;;;;;;6.13;100.00;103245.88;10338187;28;20109;-72
2023/12/17 18:49:31;;;;;;;16.40;12.35;;;;;;;6.10;100.00;103245.22;10337541;28;20065;-72
2023/12/17 18:54:32;;;;;;;29.90;12.70;;;;;;;6.09;100.00;103247.03;10337787;28;20034;-72
2023/12/17 18:59:32;;;;;;;12.57;10.13;;;;;;;6.09;100.00;103248.88;10338122;28;20562;-72
2023/12/17 19:04:32;;;;;;;19.88;9.65;;;;;;;6.05;100.00;103248.22;10337611;28;20030;-72
2023/12/17 19:09:33;;;;;;;17.85;10.80;;;;;;;5.99;100.00;103229.84;10336653;28;20038;-72
2023/12/17 19:14:33;;;;;;;16.38;10.52;;;;;;;5.93;100.00;103227.59;10336640;28;20512;-72
2023/12/17 19:19:33;;;;;;;22.58;11.68;;;;;;;6.05;100.00;103232.09;10338235;28;20022;-73
2023/12/17 19:24:34;;;;;;;24.92;11.43;;;;;;;6.16;100.00;103228.63;10335265;28;20126;-72
2023/12/17 19:29:34;;;;;;;22.73;12.10;;;;;;;6.36;100.00;103228.03;10337323;28;20045;-72
2023/12/17 19:34:36;;;;;;;15.95;11.45;;;;;;;6.65;100.00;103231.25;10336235;28;20113;-72
2023/12/17 19:39:40;;;;;;;22.38;11.57;;;;;;;6.81;100.00;103217.50;10335442;28;20467;-72
2023/12/17 19:44:40;;;;;;;16.67;11.15;;;;;;;6.87;100.00;103218.88;10335758;28;20130;-72
2023/12/17 19:49:41;;;;;;;14.60;10.73;;;;;;;6.93;100.00;103210.34;10334715;28;20478;-72
2023/12/17 19:54:41;;;;;;;25.52;11.70;;;;;;;6.99;100.00;103213.41;10351048;28;20046;-72
2023/12/17 19:59:42;;;;;;;24.67;10.85;;;;;;;7.07;100.00;103199.34;10333293;28;20124;-72
2023/12/17 20:04:42;;;;;;;24.08;11.18;;;;;;;7.10;100.00;103196.41;10335229;28;20168;-72
2023/12/17 20:09:42;;;;;;;13.27;9.50;;;;;;;7.15;100.00;103190.69;10334518;28;20113;-72
2023/12/17 20:14:43;;;;;;;18.77;11.23;;;;;;;7.22;100.00;103202.69;10335887;28;20037;-72
2023/12/17 20:19:43;;;;;;;19.52;10.00;;;;;;;7.26;100.00;103184.44;10334991;28;20042;-72
2023/12/17 20:24:44;;;;;;;16.50;11.68;;;;;;;7.33;100.00;103181.16;10332998;28;20184;-72
2023/12/17 20:29:45;;;;;;;13.90;8.80;;;;;;;7.29;100.00;103195.84;10336239;28;20363;-72
2023/12/17 20:34:45;;;;;;;18.92;10.90;;;;;;;7.41;100.00;103202.13;10339527;28;20035;-72
2023/12/17 20:39:45;;;;;;;20.48;12.20;;;;;;;7.40;100.00;103187.78;10340128;28;20034;-72
2023/12/17 20:44:46;;;;;;;21.80;12.60;;;;;;;7.41;100.00;103189.50;10335068;28;20139;-73
2023/12/17 20:49:46;;;;;;;19.88;10.80;;;;;;;7.45;100.00;103190.13;10348704;28;20038;-72
2023/12/17 20:54:47;;;;;;;16.75;11.73;;;;;;;7.50;100.00;103187.94;10333823;28;20023;-72
2023/12/17 20:59:47;;;;;;;15.27;9.98;;;;;;;7.44;100.00;103180.31;10332834;28;20372;-72
2023/12/17 21:04:48;;;;;;;24.23;12.43;;;;;;;7.57;100.00;103191.84;10333424;28;20081;-72
2023/12/17 21:09:48;;;;;;;15.60;11.25;;;;;;;7.62;100.00;103199.56;10334056;28;20062;-72
2023/12/17 21:14:49;;;;;;;30.92;12.50;;;;;;;7.64;100.00;103193.06;10331512;28;20030;-72
2023/12/17 21:19:49;;;;;;;15.68;9.52;;;;;;;7.67;100.00;103192.81;10332908;28;20478;-73
2023/12/17 21:24:49;;;;;;;13.70;10.20;;;;;;;7.65;100.00;103183.13;10332158;28;20042;-73
2023/12/17 21:29:53;;;;;;;16.98;10.82;;;;;;;7.64;100.00;103174.19;10332797;28;20062;-73
2023/12/17 21:34:55;;;;;;;35.88;12.95;;;;;;;7.67;100.00;103191.97;10332248;28;20046;-73
2023/12/17 21:39:56;;;;;;;18.20;9.95;;;;;;;7.63;100.00;103185.97;10331743;28;20038;-73
2023/12/17 21:44:56;;;;;;;19.63;12.10;;;;;;;7.66;100.00;103184.88;10333208;28;20034;-75
2023/12/17 21:49:57;;;;;;;16.20;10.02;;;;;;;7.68;100.00;103189.13;10332856;28;20048;-73
2023/12/17 21:54:58;;;;;;;27.40;11.48;;;;;;;7.65;100.00;103194.78;10329981;28;20038;-73
2023/12/17 21:59:59;;;;;;;16.98;9.10;;;;;;;7.67;100.00;103184.75;10331200;28;20075;-73
2023/12/17 22:05:00;;;;;;;15.80;10.02;;;;;;;7.70;100.00;103180.94;10330627;28;20053;-73
2023/12/17 22:10:01;;;;;;;20.77;12.65;;;;;;;7.80;100.00;103197.25;10331879;28;20057;-73
2023/12/17 22:15:02;;;;;;;19.75;12.05;;;;;;;7.77;100.00;103192.09;10337123;28;20506;-73
2023/12/17 22:20:03;;;;;;;13.73;8.45;;;;;;;7.81;100.00;103196.25;10338892;28;20042;-72
2023/12/17 22:25:04;;;;;;;27.92;11.55;;;;;;;7.80;100.00;103197.25;10338352;28;20379;-72
2023/12/17 22:30:05;;;;;;;25.42;11.82;;;;;;;7.84;100.00;103199.56;10336484;28;20045;-72
2023/12/17 22:35:06;;;;;;;17.20;10.65;;;;;;;7.91;100.00;103183.72;10337074;28;20078;-72
2023/12/17 22:40:08;;;;;;;13.73;10.77;;;;;;;7.91;100.00;103181.03;10337154;28;20540;-73